M I D A S
Marine Information and Data Acquisition System
Tripno 812 of the Zeeleeuw from 2004-11-24 07:45:28 to 2004-11-24 14:29:23
Back to CruiseResearch ActivitiesStationsMapUnderway DataData graphs

EquipmentUnitsComment
TimeDGPSUTC
LatitudeDGPSDM.mWGS84
LongitudeDGPSDM.mWGS84
HeadingGyrodeg 
SOGDGPSknotsSpeed over ground
COGDGPSdegCourse over ground
DepthEcho soundermeters200 kHz
Missing or incorrect values are displayed as -999
Navigation data collected by the RV Zeeleeuw from 2004-11-24 07:38:26 to 2004-11-24 14:40:34
                                                                                    Next 1000 lines
Time Latitude Longitude Heading SOG COG Depth
2004-11-24 07:38:36 51°13.617 2°56.057 109.5 1 286 8.8
2004-11-24 07:38:42 51°13.618 2°56.053 109.3 1.5 290 9
2004-11-24 07:38:47 51°13.619 2°56.049 109.4 1.8 289 9.1
2004-11-24 07:38:52 51°13.62 2°56.044 110.1 2.1 290 -999
2004-11-24 07:38:56 51°13.621 2°56.041 110.4 2.2 290 -999
2004-11-24 07:39:02 51°13.623 2°56.034 110.8 2.5 291 -999
2004-11-24 07:39:08 51°13.624 2°56.028 110.8 2.7 290 -999
2004-11-24 07:39:12 51°13.625 2°56.023 110.8 2.7 290 -999
2004-11-24 07:39:16 51°13.626 2°56.018 110.5 2.9 289 -999
2004-11-24 07:39:21 51°13.628 2°56.012 110.1 3 289 -999
2004-11-24 07:39:26 51°13.629 2°56.006 109.3 2.8 285 -999
2004-11-24 07:39:33 51°13.63 2°55.999 108.3 2.2 287 -999
2004-11-24 07:39:36 51°13.631 2°55.997 107.8 1.9 286 -999
2004-11-24 07:39:41 51°13.631 2°55.995 108 1.3 281 -999
2004-11-24 07:39:46 51°13.631 2°55.994 109.4 0.5 295 -999
2004-11-24 07:39:53 51°13.631 2°55.992 111.4 0.6 273 -999
2004-11-24 07:39:58 51°13.631 2°55.99 112.9 1 291 -999
2004-11-24 07:40:00 51°13.632 2°55.988 113.8 1.3 282 10.1
2004-11-24 07:40:04 51°13.632 2°55.986 114.2 1.5 291 10.6
2004-11-24 07:40:12 51°13.633 2°55.98 114.6 1.8 286 10.8
2004-11-24 07:40:24 51°13.635 2°55.969 116.8 2.2 291 -999
2004-11-24 07:40:34 51°13.638 2°55.959 119.7 2.4 291 -999
2004-11-24 07:40:38 51°13.64 2°55.955 121 2.8 295 -999
2004-11-24 07:40:45 51°13.642 2°55.947 121.7 3 297 -999
2004-11-24 07:40:48 51°13.643 2°55.943 122.3 3.1 297 -999
2004-11-24 07:40:52 51°13.645 2°55.938 122.8 3.2 297 -999
2004-11-24 07:40:59 51°13.648 2°55.929 123.3 3.5 299 -999
2004-11-24 07:41:05 51°13.651 2°55.92 123.9 3.8 300 -999
2004-11-24 07:41:10 51°13.654 2°55.912 124.5 3.8 300 -999
2004-11-24 07:41:12 51°13.655 2°55.909 124.9 4.2 301 -999
2004-11-24 07:41:20 51°13.661 2°55.896 125 4.4 302 -999
2004-11-24 07:41:25 51°13.664 2°55.887 125 4.5 302 -999
2004-11-24 07:41:30 51°13.667 2°55.879 124.7 4.4 301 -999
2004-11-24 07:41:35 51°13.67 2°55.871 124.1 4.3 301 -999
2004-11-24 07:41:40 51°13.673 2°55.863 123.3 4.2 300 -999
2004-11-24 07:41:44 51°13.675 2°55.856 122.6 4.2 300 -999
2004-11-24 07:41:49 51°13.678 2°55.848 121.6 4.2 300 -999
2004-11-24 07:41:55 51°13.681 2°55.838 120.3 4.2 298 -999
2004-11-24 07:42:00 51°13.684 2°55.83 118.8 4.2 297 -999
2004-11-24 07:42:04 51°13.686 2°55.823 117 4.2 295 -999
2004-11-24 07:42:09 51°13.688 2°55.815 115.4 4.2 293 -999
2004-11-24 07:42:14 51°13.69 2°55.806 113.6 4.3 291 -999
2004-11-24 07:42:19 51°13.692 2°55.797 112 4.3 291 -999
2004-11-24 07:42:25 51°13.694 2°55.786 110.5 4.3 288 -999
2004-11-24 07:42:30 51°13.696 2°55.778 109.3 4.1 287 -999
2004-11-24 07:42:33 51°13.697 2°55.772 108.5 4.1 287 -999
2004-11-24 07:42:40 51°13.699 2°55.762 107.9 3.5 287 -999
2004-11-24 07:42:44 51°13.699 2°55.758 107.1 2.8 285 14.9
2004-11-24 07:42:49 51°13.7 2°55.755 104.7 2.8 285 14.5
2004-11-24 07:42:52 51°13.701 2°55.754 102.1 2.8 285 14
2004-11-24 07:42:58 51°13.701 2°55.754 96.7 0.2 317 14
2004-11-24 07:43:04 51°13.702 2°55.756 89.1 0.8 53 14.5
2004-11-24 07:43:09 51°13.702 2°55.758 82 0.8 53 14.7
2004-11-24 07:43:23 51°13.703 2°55.76 67.5 0.3 41 14.6
2004-11-24 07:43:26 51°13.703 2°55.759 64.1 0.5 252 14.6
2004-11-24 07:43:32 51°13.702 2°55.757 61 0.7 248 14.5
2004-11-24 07:43:41 51°13.7 2°55.752 58.1 1.4 240 13.8
2004-11-24 07:43:44 51°13.7 2°55.75 56.8 1.3 238 13.8
2004-11-24 07:43:50 51°13.699 2°55.748 56 1.3 238 -999
2004-11-24 07:43:58 51°13.7 2°55.748 54.9 0.1 284 -999
2004-11-24 07:44:02 51°13.701 2°55.748 50.9 0.8 23 -999
2004-11-24 07:44:08 51°13.703 2°55.749 47.2 1.1 32 -999
2004-11-24 07:44:12 51°13.704 2°55.751 42 1.4 27 -999
2004-11-24 07:44:16 51°13.706 2°55.752 36.2 1.7 26 14.5
2004-11-24 07:44:20 51°13.708 2°55.753 31.4 1.9 23 14
2004-11-24 07:44:30 51°13.713 2°55.756 21.5 2.1 17 14.1
2004-11-24 07:44:34 51°13.715 2°55.756 16.6 1.4 11 14
2004-11-24 07:44:40 51°13.716 2°55.757 13 0.8 13 13.9
2004-11-24 07:44:52 51°13.716 2°55.757 2.5 0.8 13 13.8
2004-11-24 07:44:58 51°13.716 2°55.757 0.5   160 13.8
2004-11-24 07:45:02 51°13.717 2°55.757 357.6 1 348 13.7
2004-11-24 07:45:08 51°13.719 2°55.755 352.9 1 348 13.4
2004-11-24 07:45:11 51°13.721 2°55.754 346.4 1.7 337 12.9
2004-11-24 07:45:16 51°13.724 2°55.752 338.5 1.7 337 11.9
2004-11-24 07:45:24 51°13.728 2°55.747 332.1 2.3 326 11.1
2004-11-24 07:45:28 51°13.731 2°55.743 328.7 3.2 322 10.9
2004-11-24 07:45:33 51°13.735 2°55.738 325.4 3.2 322 10.7
2004-11-24 07:45:38 51°13.74 2°55.731 324.5 4.3 319 10.7
2004-11-24 07:45:42 51°13.744 2°55.726 324.3 4.9 320 10.7
2004-11-24 07:45:47 51°13.75 2°55.718 324.3 5.1 320 10.8
2004-11-24 07:45:52 51°13.756 2°55.71 324.3 5.9 320 10.7
2004-11-24 07:45:58 51°13.764 2°55.699 324.5 6.3 320 10.7
2004-11-24 07:46:00 51°13.767 2°55.696 324.9 6.5 322 10.9
2004-11-24 07:46:08 51°13.779 2°55.682 325.7 7 324 10.9
2004-11-24 07:46:12 51°13.786 2°55.674 327.5 7 325 10.5
2004-11-24 07:46:16 51°13.793 2°55.667 329.4 7.3 326 10.9
2004-11-24 07:46:22 51°13.804 2°55.656 330.9 7.8 328 11.2
2004-11-24 07:46:28 51°13.816 2°55.644 331.7 8 328 11.2
2004-11-24 07:46:32 51°13.824 2°55.637 333.4 8 328 11
2004-11-24 07:46:38 51°13.837 2°55.626 335.5 8.4 331 10.8
2004-11-24 07:46:43 51°13.848 2°55.618 338.9 8.4 331 10.9
2004-11-24 07:46:48 51°13.858 2°55.61 339.9 8.7 334 10.7
2004-11-24 07:46:52 51°13.867 2°55.603 339.3 8.7 334 10.7
2004-11-24 07:46:58 51°13.881 2°55.593 339.1 8.9 335 10.8
2004-11-24 07:47:03 51°13.892 2°55.584 340.1 8.9 335 10.6
2004-11-24 07:47:08 51°13.904 2°55.576 340.8 9.1 336 11
2004-11-24 07:47:14 51°13.917 2°55.566 340.9 9.1 336 10.9
2004-11-24 07:47:16 51°13.922 2°55.563 340.5 9.3 336 11.1
2004-11-24 07:47:23 51°13.939 2°55.552 341.8 9.3 337 10.3
2004-11-24 07:47:28 51°13.951 2°55.544 341.8 9.4 336 10.7
2004-11-24 07:47:32 51°13.96 2°55.537 341.1 9.3 336 10.8
2004-11-24 07:47:42 51°13.984 2°55.521 341.6 9.4 337 11.1
2004-11-24 07:47:44 51°13.989 2°55.518 342.3 9.4 337 11.2
2004-11-24 07:47:52 51°14.01 2°55.503 342 9.4 337 11
2004-11-24 07:47:56 51°14.02 2°55.496 341.8 9.5 337 11
2004-11-24 07:48:02 51°14.034 2°55.487 341.8 9.5 337 10.8
2004-11-24 07:48:06 51°14.044 2°55.481 341.4 9.5 336 10.7
2004-11-24 07:48:12 51°14.058 2°55.47 340.5 9.7 335 10.5
2004-11-24 07:48:17 51°14.071 2°55.462 340.2 9.7 335 10.6
2004-11-24 07:48:20 51°14.078 2°55.457 340.7 9.9 336 10.6
2004-11-24 07:48:24 51°14.089 2°55.449 340.7 9.9 336 10.5
2004-11-24 07:48:36 51°14.119 2°55.426 340.4 10.1 335 10.6
2004-11-24 07:48:40 51°14.13 2°55.418 339.7 10.4 334 10.7
2004-11-24 07:48:45 51°14.143 2°55.408 339.1 10.4 334 10.8
2004-11-24 07:48:49 51°14.153 2°55.399 338.2 10.6 333 11
2004-11-24 07:48:56 51°14.17 2°55.382 337.3 10.6 333 11.7
2004-11-24 07:49:00 51°14.18 2°55.373 336 10.7 330 10.8
2004-11-24 07:49:05 51°14.193 2°55.36 334.8 10.7 330 11.4
2004-11-24 07:49:10 51°14.205 2°55.347 333.1 10.8 327 10.8
2004-11-24 07:49:15 51°14.217 2°55.332 330.4 10.7 325 10.9
2004-11-24 07:49:20 51°14.229 2°55.318 328.1 10.8 322 -999
2004-11-24 07:49:24 51°14.238 2°55.305 326 10.8 322 11.4
2004-11-24 07:49:28 51°14.246 2°55.292 323.2 10.8 317 11.5
2004-11-24 07:49:35 51°14.261 2°55.269 321.5 10.8 314 10.9
2004-11-24 07:49:39 51°14.269 2°55.254 319.3 10.8 314 10.9
2004-11-24 07:49:44 51°14.279 2°55.236 317.3 11.1 311 11
2004-11-24 07:49:49 51°14.289 2°55.217 315.9 11.1 310 10.9
2004-11-24 07:49:52 51°14.295 2°55.206 315.3 11.3 309 11
2004-11-24 07:49:59 51°14.309 2°55.179 315 11.3 309 10.9
2004-11-24 07:50:04 51°14.319 2°55.159 313.6 11.4 309 10.9
2004-11-24 07:50:07 51°14.325 2°55.147 311.7 11.6 306 10.9
2004-11-24 07:50:14 51°14.338 2°55.117 308.8 11.8 304 10.9
2004-11-24 07:50:20 51°14.348 2°55.09 306.9 11.8 304 10.7
2004-11-24 07:50:24 51°14.355 2°55.071 305.1 12 301 10.9
2004-11-24 07:50:30 51°14.364 2°55.043 304.4 12.1 300 10.9
2004-11-24 07:50:32 51°14.368 2°55.034 303.8 12.4 299 10.7
2004-11-24 07:50:44 51°14.388 2°54.974 303.8 12.8 299 10.8
2004-11-24 07:50:50 51°14.397 2°54.943 302.6 12.8 299 10.8
2004-11-24 07:51:01 51°14.413 2°54.884 300.6 13.3 294 10.9
2004-11-24 07:51:05 51°14.417 2°54.86 299.2 13.4 292 10.8
2004-11-24 07:51:14 51°14.429 2°54.81 297.5 13.6 291 10.8
2004-11-24 07:51:20 51°14.438 2°54.777 298.3 13.7 293 11
2004-11-24 07:51:22 51°14.442 2°54.766 299.6 13.7 296 10.9
2004-11-24 07:51:42 51°14.477 2°54.66 304.3 13.7 299 11
2004-11-24 07:51:47 51°14.486 2°54.633 304.1 13.7 298 11.2
2004-11-24 07:51:52 51°14.495 2°54.606 303.9 13.8 298 11.2
2004-11-24 07:51:57 51°14.505 2°54.58 304.6 13.7 301 11
2004-11-24 07:52:02 51°14.515 2°54.554 307 13.8 303 11.1
2004-11-24 07:52:08 51°14.529 2°54.525 309.6 13.7 305 11
2004-11-24 07:52:12 51°14.538 2°54.505 312.1 13.7 305 11.1
2004-11-24 07:52:18 51°14.552 2°54.477 313.8 13.7 309 11.1
2004-11-24 07:52:22 51°14.563 2°54.46 316.3 13.7 311 11
2004-11-24 07:52:28 51°14.58 2°54.435 320.2 13.6 316 11.1
2004-11-24 07:52:32 51°14.591 2°54.42 323.7 13.6 316 11
2004-11-24 07:52:36 51°14.603 2°54.405 326.4 13.6 321 10.6
2004-11-24 07:52:50 51°14.645 2°54.354 330.2 13.6 323 10.6
2004-11-24 07:52:56 51°14.663 2°54.333 330.5 13.5 324 10.6
2004-11-24 07:53:00 51°14.675 2°54.319 331.2 13.5 325 10.6
2004-11-24 07:53:05 51°14.691 2°54.301 331.9 13.6 325 10.6
2004-11-24 07:53:10 51°14.706 2°54.284 332.3 13.6 325 10.6
2004-11-24 07:53:14 51°14.719 2°54.27 332.2 13.6 325 10.4
2004-11-24 07:53:30 51°14.769 2°54.219 334.1 13.5 328 10.5
2004-11-24 07:53:32 51°14.775 2°54.213 336 13.5 329 10.5
2004-11-24 07:53:40 51°14.802 2°54.19 338.2 13.5 332 10.2
2004-11-24 07:53:46 51°14.822 2°54.173 339.4 13.4 333 10
2004-11-24 07:53:52 51°14.841 2°54.157 340.1 13.4 333 9.8
2004-11-24 07:53:56 51°14.855 2°54.147 340.4 13.4 333 9.8
2004-11-24 07:54:00 51°14.868 2°54.136 340.9 13.4 333 9.6
2004-11-24 07:54:07 51°14.891 2°54.118 341.1 13.3 334 9.5
2004-11-24 07:54:12 51°14.908 2°54.105 341.2 13.3 334 9.3
2004-11-24 07:54:17 51°14.924 2°54.092 341.1 13.3 334 9.2
2004-11-24 07:54:20 51°14.934 2°54.084 340.6 13.3 334 9.5
2004-11-24 07:54:24 51°14.947 2°54.073 340.2 13.3 334 9.4
2004-11-24 07:54:32 51°14.973 2°54.051 339.6 13.4 332 9.3
2004-11-24 07:54:37 51°14.99 2°54.037 339.5 13.4 332 9.3
2004-11-24 07:54:42 51°15.006 2°54.024 339.6 13.4 332 9.4
2004-11-24 07:54:47 51°15.023 2°54.01 339.6 13.5 332 9.5
2004-11-24 07:54:50 51°15.033 2°54.002 339.7 13.5 332 9.5
2004-11-24 07:54:57 51°15.056 2°53.983 340 13.5 333 9.6
2004-11-24 07:55:02 51°15.073 2°53.969 340.4 13.5 333 9.6
2004-11-24 07:55:06 51°15.087 2°53.959 340.7 13.6 334 9.6
2004-11-24 07:55:12 51°15.107 2°53.943 341 13.6 334 9.6
2004-11-24 07:55:21 51°15.137 2°53.918 340.9 13.6 334 9.6
2004-11-24 07:55:27 51°15.158 2°53.902 340.6 13.7 333 9.8
2004-11-24 07:55:32 51°15.175 2°53.887 340.4 13.7 333 9.8
2004-11-24 07:55:37 51°15.191 2°53.874 339.7 13.7 332 9.8
2004-11-24 07:55:40 51°15.201 2°53.865 339.7 13.7 332 9.8
2004-11-24 07:55:56 51°15.255 2°53.819 339.4 13.7 332 10
2004-11-24 07:56:02 51°15.276 2°53.802 339.4 13.8 332 10
2004-11-24 07:56:08 51°15.296 2°53.785 339.4 13.9 332 10.1
2004-11-24 07:56:12 51°15.31 2°53.773 339.5 13.9 332 10.2
2004-11-24 07:56:17 51°15.327 2°53.759 339.6 13.8 332 10.2
2004-11-24 07:56:21 51°15.34 2°53.748 339.9 13.8 332 10.2
2004-11-24 07:56:28 51°15.364 2°53.729 340.4 13.8 333 10.4
2004-11-24 07:56:33 51°15.381 2°53.715 340.7 13.9 333 10.5
2004-11-24 07:56:38 51°15.398 2°53.701 340.5 13.8 333 10.4
2004-11-24 07:56:42 51°15.412 2°53.689 340.4 13.8 333 10.5
2004-11-24 07:56:48 51°15.432 2°53.672 340 13.9 332 10.7
2004-11-24 07:56:52 51°15.446 2°53.66 339.8 13.9 332 10.7
2004-11-24 07:56:56 51°15.459 2°53.649 339.6 13.9 332 10.7
2004-11-24 07:57:03 51°15.483 2°53.628 339.6 13.8 332 10.8
2004-11-24 07:57:16 51°15.528 2°53.591 339.7 13.8 332 11.1
2004-11-24 07:57:19 51°15.537 2°53.583 339.8 13.8 332 11.2
2004-11-24 07:57:24 51°15.555 2°53.568 340 13.9 332 11.2
2004-11-24 07:57:28 51°15.568 2°53.557 340 13.9 332 11.2
2004-11-24 07:57:35 51°15.592 2°53.536 339.8 13.9 332 11.4
2004-11-24 07:57:40 51°15.609 2°53.521 339.6 13.9 332 11.5
2004-11-24 07:57:45 51°15.625 2°53.507 339.1 13.9 331 11.5
2004-11-24 07:57:48 51°15.636 2°53.498 339.2 13.9 332 11.4
2004-11-24 07:57:55 51°15.659 2°53.478 339.6 13.8 332 11.5
2004-11-24 07:58:00 51°15.676 2°53.464 339.9 13.8 332 11.6
2004-11-24 07:58:04 51°15.69 2°53.453 340.2 13.8 333 11.6
2004-11-24 07:58:10 51°15.711 2°53.436 340.4 13.8 333 11.8
2004-11-24 07:58:15 51°15.728 2°53.422 340.7 13.8 333 11.6
2004-11-24 07:58:28 51°15.772 2°53.386 340.2 13.8 333 11.9
2004-11-24 07:58:44 51°15.826 2°53.34 339.2 -999 -999 12
2004-11-24 07:58:50 51°15.846 2°53.322 338.8 13.8 332 12
2004-11-24 07:58:56 51°15.866 2°53.304 338.8 13.8 332 12.1
2004-11-24 07:59:01 51°15.883 2°53.29 338.9 13.7 332 12
2004-11-24 07:59:04 51°15.893 2°53.281 339 13.7 332 12.1
2004-11-24 07:59:08 51°15.907 2°53.27 338.9 13.8 331 12.2
2004-11-24 07:59:26 51°15.966 2°53.215 338.3 13.8 331 12.4
2004-11-24 07:59:32 51°15.986 2°53.198 339.2 13.7 331 12.3
2004-11-24 07:59:36 51°16 2°53.187 339.8 13.7 331 12.5
2004-11-24 07:59:40 51°16.014 2°53.176 341.1 13.6 334 12.3
2004-11-24 07:59:46 51°16.034 2°53.16 341.3 13.6 334 12.4
2004-11-24 07:59:49 51°16.044 2°53.152 341.8 13.7 335 12.6
2004-11-24 07:59:56 51°16.068 2°53.134 342.1 13.7 335 12.6
2004-11-24 08:00:01 51°16.085 2°53.121 342.3 13.6 335 12.6
2004-11-24 08:00:05 51°16.099 2°53.111 342.5 13.6 335 12.6
2004-11-24 08:00:11 51°16.119 2°53.095 342.1 13.7 334 12.6
2004-11-24 08:00:16 51°16.136 2°53.082 341.7 13.7 334 12.7
2004-11-24 08:00:20 51°16.15 2°53.071 341.7 13.7 334 12.8
2004-11-24 08:00:26 51°16.171 2°53.055 341.7 13.7 334 12.8
2004-11-24 08:00:31 51°16.188 2°53.042 341.8 13.6 334 12.7
2004-11-24 08:00:36 51°16.205 2°53.029 342 13.6 334 12.8
2004-11-24 08:00:41 51°16.222 2°53.016 342 13.7 334 12.8
2004-11-24 08:00:46 51°16.239 2°53.003 341.8 13.7 334 12.9
2004-11-24 08:00:52 51°16.259 2°52.987 341.7 13.7 334 12.8
2004-11-24 08:00:56 51°16.273 2°52.977 341.6 13.7 334 13
2004-11-24 08:00:59 51°16.283 2°52.969 341.6 13.6 335 13
2004-11-24 08:01:06 51°16.307 2°52.951 341.5 13.7 334 12.7
2004-11-24 08:01:10 51°16.321 2°52.941 341.3 13.6 334 12.9
2004-11-24 08:01:16 51°16.341 2°52.925 341.4 13.6 334 12.9
2004-11-24 08:01:21 51°16.358 2°52.912 341.3 13.7 334 13
2004-11-24 08:01:26 51°16.375 2°52.899 341.4 13.5 335 13
2004-11-24 08:01:31 51°16.392 2°52.887 341.6 13.6 335 12.8
2004-11-24 08:01:36 51°16.409 2°52.874 341.8 13.6 335 12.8
2004-11-24 08:01:41 51°16.426 2°52.861 341.7 13.5 335 12.8
2004-11-24 08:01:46 51°16.443 2°52.848 341.5 13.6 334 12.8
2004-11-24 08:01:48 51°16.45 2°52.842 341 13.6 334 12.7
2004-11-24 08:02:01 51°16.494 2°52.807 340.7 13.5 333 12.5
2004-11-24 08:02:07 51°16.514 2°52.791 340.6 13.6 333 12.4
2004-11-24 08:02:12 51°16.53 2°52.777 340.4 13.6 333 12.3
2004-11-24 08:02:17 51°16.547 2°52.764 340.4 13.6 334 12.2
2004-11-24 08:02:22 51°16.564 2°52.751 341.1 13.6 334 12.2
2004-11-24 08:02:26 51°16.578 2°52.741 341.4 13.5 334 12
2004-11-24 08:02:32 51°16.598 2°52.725 341.7 13.6 335 12.1
2004-11-24 08:02:36 51°16.612 2°52.715 341.8 13.4 335 11.9
2004-11-24 08:02:42 51°16.632 2°52.7 341.9 13.4 335 11.7
2004-11-24 08:02:45 51°16.642 2°52.692 342 13.4 335 11.4
2004-11-24 08:02:52 51°16.666 2°52.674 342 13.4 335 11.5
2004-11-24 08:02:57 51°16.683 2°52.661 341.9 13.4 334 11.4
2004-11-24 08:03:01 51°16.696 2°52.652 341.8 13.5 335 11.1
2004-11-24 08:03:07 51°16.716 2°52.637 341.8 13.4 335 10.9
2004-11-24 08:03:21 51°16.763 2°52.602 342.3 13.3 335 10.3
2004-11-24 08:03:26 51°16.78 2°52.59 342.1 13.3 335 10.5
2004-11-24 08:03:31 51°16.796 2°52.577 341.8 13.3 334 10.6
2004-11-24 08:03:36 51°16.813 2°52.564 341.3 13.3 334 10.4
2004-11-24 08:03:40 51°16.827 2°52.554 341.1 13.4 334 10.3
2004-11-24 08:03:46 51°16.846 2°52.539 340.7 13.5 333 10.3
2004-11-24 08:03:52 51°16.867 2°52.523 340.8 13.5 333 10.5
2004-11-24 08:03:56 51°16.88 2°52.512 340.9 13.4 334 10.6
2004-11-24 08:04:02 51°16.9 2°52.496 340.9 13.3 333 10.6
2004-11-24 08:04:14 51°16.94 2°52.464 340.7 13.4 333 10
2004-11-24 08:04:19 51°16.956 2°52.451 340.7 13.4 333 10
2004-11-24 08:04:22 51°16.966 2°52.443 341.1 13.3 334 9.9
2004-11-24 08:04:39 51°17.022 2°52.401 342.2 13.2 335 10.1
2004-11-24 08:04:44 51°17.039 2°52.388 342.4 13.4 335 10.2
2004-11-24 08:04:49 51°17.055 2°52.375 342.4 13.4 335 10.3
2004-11-24 08:04:52 51°17.066 2°52.368 341.8 13.4 334 10.5
2004-11-24 08:04:59 51°17.089 2°52.349 341.1 13.5 334 10.6
2004-11-24 08:05:04 51°17.106 2°52.336 340.9 13.5 334 10.7
2004-11-24 08:05:09 51°17.122 2°52.323 340.6 13.5 335 10.6
2004-11-24 08:05:23 51°17.17 2°52.289 343.3 13.5 336 10.8
2004-11-24 08:05:28 51°17.187 2°52.278 344 13.5 337 10.8
2004-11-24 08:05:33 51°17.205 2°52.266 344.5 13.5 338 10.8
2004-11-24 08:05:36 51°17.215 2°52.26 344.8 13.4 338 10.8
2004-11-24 08:05:43 51°17.24 2°52.244 345 13.4 338 10.9
2004-11-24 08:05:47 51°17.254 2°52.235 345.1 13.4 338 10.9
2004-11-24 08:05:53 51°17.274 2°52.222 345.1 13.5 338 11
2004-11-24 08:05:56 51°17.285 2°52.215 345.1 13.6 338 11
2004-11-24 08:06:03 51°17.309 2°52.199 345.1 13.4 338 11.3
2004-11-24 08:06:08 51°17.326 2°52.188 345.1 13.4 338 11.1
2004-11-24 08:06:24 51°17.382 2°52.16 350.6 13.4 345 11.1
2004-11-24 08:06:34 51°17.418 2°52.145 351.9 13.3 346 11
2004-11-24 08:06:52 51°17.483 2°52.128 357.8 13.4 352 11.2
2004-11-24 08:06:56 51°17.498 2°52.125 358.7 13.4 352 11.2
2004-11-24 08:07:01 51°17.516 2°52.122   13.3 354 11
2004-11-24 08:07:04 51°17.527 2°52.12 0.3 13.3 353 11
2004-11-24 08:07:09 51°17.545 2°52.117 0.4 13.2 353 11
2004-11-24 08:07:15 51°17.567 2°52.113 0.7 13.3 353 11.1
2004-11-24 08:07:19 51°17.582 2°52.11 0.4 13.2 355 11.1
2004-11-24 08:07:26 51°17.607 2°52.108 2.2 13.2 355 11.1
2004-11-24 08:07:30 51°17.622 2°52.108 4.5 13.2   11.1
2004-11-24 08:07:36 51°17.643 2°52.108 5.8 13.1 1 11
2004-11-24 08:07:40 51°17.658 2°52.11 8.7 13.1 1 10.8
2004-11-24 08:07:46 51°17.679 2°52.113 10.1 13 4 11.1
2004-11-24 08:07:52 51°17.701 2°52.117 11.7 13 4 11.1
2004-11-24 08:07:56 51°17.715 2°52.119 12.5 13.1 6 11
2004-11-24 08:08:00 51°17.73 2°52.122 13.2 13 7 10.8
2004-11-24 08:08:06 51°17.751 2°52.126 13.4 13 7 11
2004-11-24 08:08:12 51°17.773 2°52.13 13.2 13 7 10.9
2004-11-24 08:08:16 51°17.788 2°52.133 13.1 13 7 11
2004-11-24 08:08:20 51°17.802 2°52.135 13 13 6 11
2004-11-24 08:08:26 51°17.824 2°52.139 12.7 13 7 11
2004-11-24 08:08:31 51°17.842 2°52.143 13 13.1 7 11
2004-11-24 08:08:36 51°17.86 2°52.146 13.2 13.2 6 11
2004-11-24 08:08:39 51°17.871 2°52.148 13 13.1 7 11
2004-11-24 08:08:58 51°17.94 2°52.16 12.8 13.2 7 11
2004-11-24 08:09:03 51°17.958 2°52.164 12.7 13.2 6 11.2
2004-11-24 08:09:08 51°17.976 2°52.167 12.6 13.2 7 11.1
2004-11-24 08:09:12 51°17.991 2°52.169 12.9 13.3 7 11
2004-11-24 08:09:18 51°18.013 2°52.173 12.4 13.3 7 11.1
2004-11-24 08:09:24 51°18.035 2°52.177 12.5 13.3 7 11.1
2004-11-24 08:09:28 51°18.049 2°52.179 12.5 13.1 6 11.1
2004-11-24 08:09:42 51°18.1 2°52.193 14.9 13.3 10 11.4
2004-11-24 08:09:46 51°18.114 2°52.198 17 13.2 13 11.3
2004-11-24 08:09:52 51°18.136 2°52.206 18.4 13.3 13 11.2
2004-11-24 08:09:56 51°18.15 2°52.211 19.5 13.2 14 11.5
2004-11-24 08:10:01 51°18.168 2°52.219 20.3 13.2 16 11.5
2004-11-24 08:10:06 51°18.186 2°52.226 21 13.3 14 11.4
2004-11-24 08:10:12 51°18.207 2°52.235 20.4 13.2 14 11.5
2004-11-24 08:10:17 51°18.225 2°52.243 20.3 13.1 15 11.6
2004-11-24 08:10:20 51°18.235 2°52.248 20.8 13.3 15 11.7
2004-11-24 08:10:26 51°18.257 2°52.257 20.9 13.2 15 11.7
2004-11-24 08:10:32 51°18.278 2°52.268 22.3 13.2 15 11.7
2004-11-24 08:10:37 51°18.295 2°52.277 23.4 13.2 19 11.8
2004-11-24 08:10:42 51°18.312 2°52.286 24.1 13.2 19 11.7
2004-11-24 08:10:47 51°18.329 2°52.296 24.7 13.2 20 11.9
2004-11-24 08:10:49 51°18.336 2°52.3 25.6 13.2 20 11.9
2004-11-24 08:10:57 51°18.363 2°52.317 26.1 13.2 21 11.9
2004-11-24 08:11:02 51°18.381 2°52.327 26.3 13.2 20 11.8
2004-11-24 08:11:06 51°18.394 2°52.335 26 13.2 20 11.9
2004-11-24 08:11:10 51°18.408 2°52.343 25.9 13.2 20 12
2004-11-24 08:11:17 51°18.432 2°52.358 26.3 13 21 11.8
2004-11-24 08:11:22 51°18.448 2°52.368 26.4 13.2 22 11.9
2004-11-24 08:11:26 51°18.462 2°52.379 27.5 13.2 22 12
2004-11-24 08:11:32 51°18.481 2°52.394 29.7 13.2 22 12
2004-11-24 08:11:36 51°18.494 2°52.405 31.5 13 29 12.1
2004-11-24 08:11:39 51°18.504 2°52.414 33.7 13.1 29 12.2
2004-11-24 08:11:54 51°18.551 2°52.459 35.5 13.1 32 12.1
2004-11-24 08:11:58 51°18.563 2°52.472 36.4 13.2 35 12.3
2004-11-24 08:12:04 51°18.581 2°52.492 38.1 13.1 34 12.1
2004-11-24 08:12:38 51°18.658 2°52.644 61.3 13.1 63 12.3
2004-11-24 08:12:42 51°18.665 2°52.665 65.1 13.2 66 12.2
2004-11-24 08:12:48 51°18.673 2°52.697 67.6 13.2 66 12.2
2004-11-24 08:12:53 51°18.68 2°52.724 69.4 13.1 69 12.4
2004-11-24 08:12:58 51°18.686 2°52.751 71.5 13.2 70 12.4
2004-11-24 08:13:04 51°18.693 2°52.785 72.2 13.2 71 12.2
2004-11-24 08:13:08 51°18.698 2°52.807 72.6 13.2 71 12.4
2004-11-24 08:13:22 51°18.714 2°52.884 73.4 13.2 71 12.2
2004-11-24 08:13:26 51°18.719 2°52.907 73.6 13.1 70 12.2
2004-11-24 08:13:32 51°18.726 2°52.94 73.2 13.2 72 12.3
2004-11-24 08:13:37 51°18.733 2°52.967 72.9 13.1 69 12.4
2004-11-24 08:13:40 51°18.736 2°52.983 71.9 13.1 73 12.4
2004-11-24 08:13:44 51°18.741 2°53.005 72.5 13.3 69 12.3
2004-11-24 08:13:51 51°18.75 2°53.044 71.6 13.2 71 12.3
2004-11-24 08:13:57 51°18.758 2°53.077 72.1 13.2 69 12.4
2004-11-24 08:14:02 51°18.764 2°53.104 71.6 13.1 70 12.3
2004-11-24 08:14:06 51°18.769 2°53.126 71.8 13.1 70 12.3
2004-11-24 08:14:11 51°18.775 2°53.153 71.9 13.2 69 12.4
2004-11-24 08:14:17 51°18.783 2°53.186 71.6 13.2 69 12.2
2004-11-24 08:14:22 51°18.79 2°53.213 71.1 13.2 69 12.3
2004-11-24 08:14:26 51°18.795 2°53.235 71.2 13.2 70 12.3
2004-11-24 08:14:32 51°18.803 2°53.267 71.4 13.1 68 12.3
2004-11-24 08:14:36 51°18.808 2°53.289 71 13.1 68 12.3
2004-11-24 08:14:42 51°18.816 2°53.322 70.5 13.2 68 12.4
2004-11-24 08:15:46 51°18.902 2°53.671 70.9 13.3 68 12.4
2004-11-24 08:15:50 51°18.907 2°53.693 70.6 13.4 70 12.4
2004-11-24 08:15:54 51°18.913 2°53.714 71 13.3 67 12.3
2004-11-24 08:16:04 51°18.927 2°53.769 71.6 13.2 67 12.4
2004-11-24 08:16:11 51°18.936 2°53.807 71 13.1 69 12.4
2004-11-24 08:16:16 51°18.943 2°53.835 71.4 13.1 69 12.5
2004-11-24 08:16:21 51°18.95 2°53.862 70.5 13.3 67 12.5
2004-11-24 08:16:26 51°18.957 2°53.889 70.4 13.3 67 12.5
2004-11-24 08:16:30 51°18.962 2°53.911 70.5 13.4 68 12.4
2004-11-24 08:16:36 51°18.97 2°53.944 70.8 13.2 69 12.4
2004-11-24 08:16:38 51°18.973 2°53.955 71.8 13.3 70 12.4
2004-11-24 08:16:44 51°18.98 2°53.988 72.6 13.3 69 12.5
2004-11-24 08:16:50 51°18.987 2°54.022 72.3 13.4 72 12.4
2004-11-24 08:16:56 51°18.996 2°54.055 72.9 13.4 68 12.4
2004-11-24 08:16:59 51°18.999 2°54.072 72.3 13.4 69 12.5
2004-11-24 08:17:05 51°19.008 2°54.105 71.8 13.3 67 12.5
2004-11-24 08:17:09 51°19.013 2°54.127 71.3 13.3 69 12.4
2004-11-24 08:17:16 51°19.022 2°54.165 72.3 13.3 69 12.4
2004-11-24 08:17:20 51°19.027 2°54.188 72.4 13.4 70 12.4
2004-11-24 08:17:25 51°19.033 2°54.216 73.2 13.4 71 12.3
2004-11-24 08:17:32 51°19.042 2°54.255 73.6 13.4 71 12.4
2004-11-24 08:17:36 51°19.046 2°54.277 73.3 13.4 71 12.4
2004-11-24 08:17:40 51°19.052 2°54.3 72.9 13.4 70 12.4
2004-11-24 08:17:45 51°19.058 2°54.327 72.2 13.4 70 12.4
2004-11-24 08:17:52 51°19.067 2°54.366 72.5 13.4 70 12.5
2004-11-24 08:17:55 51°19.071 2°54.383 72.5 13.4 70 12.4
2004-11-24 08:18:01 51°19.079 2°54.416 72.7 13.5 70 12.5
2004-11-24 08:18:04 51°19.083 2°54.433 72.6 13.5 70 12.4
2004-11-24 08:18:10 51°19.09 2°54.466 72.2 13.4 70 12.5
2004-11-24 08:18:16 51°19.099 2°54.499 71.5 13.3 68 12.5
2004-11-24 08:18:19 51°19.103 2°54.516 71.1 13.4 70 12.4
2004-11-24 08:18:26 51°19.112 2°54.555 71.6 13.5 70 12.4
2004-11-24 08:18:30 51°19.117 2°54.577 71.5 13.4 71 12.5
2004-11-24 08:18:36 51°19.125 2°54.61 72.2 13.4 69 12.3
2004-11-24 08:18:41 51°19.131 2°54.638 71.8 13.3 69 12.4
2004-11-24 08:18:46 51°19.137 2°54.666 72.3 13.3 69 12.5
2004-11-24 08:18:51 51°19.144 2°54.694 72.7 13.4 69 12.5
2004-11-24 08:18:56 51°19.151 2°54.722 72.6 13.4 69 12.5
2004-11-24 08:19:01 51°19.157 2°54.749 72.6 13.4 69 12.4
2004-11-24 08:19:04 51°19.161 2°54.766 72.3 13.4 69 12.4
2004-11-24 08:19:10 51°19.169 2°54.799 72.3 13.4 69 12.4
2004-11-24 08:19:16 51°19.176 2°54.832 72 13.4 70 12.4
2004-11-24 08:19:21 51°19.183 2°54.86 71.7 13.3 68 12.4
2004-11-24 08:19:26 51°19.189 2°54.887 71.4 13.3 68 12.4
2004-11-24 08:19:32 51°19.197 2°54.92 71.8 13.4 68 12.4
2004-11-24 08:19:36 51°19.203 2°54.942 71.8 13.4 69 12.5
2004-11-24 08:19:39 51°19.206 2°54.959 72.3 13.4 70 12.5
2004-11-24 08:19:44 51°19.213 2°54.987 72.3 13.4 69 12.4
2004-11-24 08:19:52 51°19.223 2°55.031 72.3 13.3 69 12.5
2004-11-24 08:19:56 51°19.228 2°55.053 72.1 13.3 69 12.4
2004-11-24 08:20:00 51°19.234 2°55.075 72.2 13.3 69 12.3
2004-11-24 08:20:04 51°19.239 2°55.097 71.3 13.3 69 12.5
2004-11-24 08:20:12 51°19.25 2°55.141 70.9 13.3 69 12.4
2004-11-24 08:20:16 51°19.256 2°55.163 71 13.3 69 12.4
2004-11-24 08:20:20 51°19.261 2°55.185 70.8 13.4 67 12.3
2004-11-24 08:20:42 51°19.292 2°55.305 71.5 13.4 68 12.4
2004-11-24 08:20:46 51°19.297 2°55.327 71.1 13.4 69 12.4
2004-11-24 08:21:04 51°19.321 2°55.426 71.4 13.4 68 12.2
2004-11-24 08:21:08 51°19.327 2°55.448 71.5 13.4 69 12.3
2004-11-24 08:21:13 51°19.334 2°55.476 71.4 13.3 68 12.3
2004-11-24 08:21:17 51°19.339 2°55.498 70.8 13.3 70 12.3
2004-11-24 08:21:24 51°19.349 2°55.536 71.5 13.4 69 12.3
2004-11-24 08:21:28 51°19.354 2°55.558 70.8 13.4 69 12.3
2004-11-24 08:21:33 51°19.362 2°55.585 70.2 13.4 69 12.3
2004-11-24 08:21:38 51°19.368 2°55.613 70.3 13.4 69 12.4
2004-11-24 08:21:44 51°19.377 2°55.646 71.1 13.4 68 12.2
2004-11-24 08:21:48 51°19.382 2°55.668 71.1 13.4 68 12.1
2004-11-24 08:22:08 51°19.409 2°55.778 71.7 13.5 70 12.1
2004-11-24 08:22:16 51°19.421 2°55.823 71.5 13.5 66 12
2004-11-24 08:22:21 51°19.426 2°55.851 71.5 13.6 71 12.2
2004-11-24 08:22:24 51°19.431 2°55.868 72.3 13.6 67 12.2
2004-11-24 08:23:03 51°19.484 2°56.086 71.6 13.6 68 12
2004-11-24 08:23:08 51°19.491 2°56.114 71 13.7 68 12
2004-11-24 08:23:12 51°19.497 2°56.136 71.1 13.5 67 11.9
2004-11-24 08:23:16 51°19.502 2°56.159 71.1 13.5 69 12
2004-11-24 08:23:21 51°19.509 2°56.186 71.1 13.5 69 12
2004-11-24 08:23:28 51°19.519 2°56.226 71.4 13.6 68 11.9
2004-11-24 08:23:33 51°19.526 2°56.253 71.1 13.6 67 12
2004-11-24 08:23:38 51°19.533 2°56.282 70.7 13.6 68 11.9
2004-11-24 08:23:43 51°19.54 2°56.31 71.2 13.7 68 12
2004-11-24 08:23:48 51°19.547 2°56.338 70.6 13.5 69 12
2004-11-24 08:23:53 51°19.554 2°56.365 71.8 13.6 68 11.8
2004-11-24 08:23:58 51°19.56 2°56.394 71.4 13.6 68 12
2004-11-24 08:24:03 51°19.567 2°56.422 71.8 13.6 70 12
2004-11-24 08:24:08 51°19.574 2°56.45 72.5 13.6 69 11.9
2004-11-24 08:24:12 51°19.579 2°56.473 71.9 13.6 69 11.9
2004-11-24 08:24:16 51°19.585 2°56.495 71.5 13.6 69 12
2004-11-24 08:24:22 51°19.593 2°56.529 71.2 13.5 69 11.9
2004-11-24 08:24:42 51°19.621 2°56.641 71.5 13.7 68 11.8
2004-11-24 08:25:10 51°19.659 2°56.798 71.3 13.7 69 11.9
2004-11-24 08:25:16 51°19.667 2°56.832 72.2 -999 -999 12
2004-11-24 08:25:20 51°19.673 2°56.854 71.5 13.6 67 12
2004-11-24 08:25:28 51°19.683 2°56.899 72.2 13.6 69 11.9
2004-11-24 08:25:36 51°19.694 2°56.944 71.7 13.6 69 11.9
2004-11-24 08:25:41 51°19.701 2°56.972 71.3 13.6 69 11.9
2004-11-24 08:25:43 51°19.704 2°56.983 71.1 13.6 68 11.8
2004-11-24 08:25:50 51°19.714 2°57.022 70.2 13.6 68 11.8
2004-11-24 08:25:56 51°19.722 2°57.056 70.6 13.6 68 11.8
2004-11-24 08:26:00 51°19.728 2°57.078 71.1 13.6 69 11.7
2004-11-24 08:26:06 51°19.736 2°57.112 71.3 13.5 69 11.7
2004-11-24 08:26:11 51°19.743 2°57.14 71.5 13.5 68 11.8
2004-11-24 08:26:16 51°19.75 2°57.168 70.7 13.5 68 11.8
2004-11-24 08:26:21 51°19.757 2°57.195 70.9 13.5 69 11.7
2004-11-24 08:26:24 51°19.761 2°57.212 70.9 13.5 69 11.6
2004-11-24 08:26:30 51°19.769 2°57.246 71.1 13.5 68 11.6
2004-11-24 08:26:42 51°19.785 2°57.313 71.5 13.5 68 11.7
2004-11-24 08:26:47 51°19.792 2°57.341 70.9 13.5 68 11.7
2004-11-24 08:26:49 51°19.794 2°57.352 71.7 13.5 70 11.7
2004-11-24 08:26:59 51°19.808 2°57.408 71 13.6 70 11.8
2004-11-24 08:27:04 51°19.815 2°57.435 71.2 13.5 68 11.7
2004-11-24 08:27:08 51°19.82 2°57.458 71.1 13.5 68 11.7
2004-11-24 08:27:14 51°19.828 2°57.491 71.9 13.5 68 11.6
2004-11-24 08:27:18 51°19.833 2°57.514 71.8 13.5 68 11.6
2004-11-24 08:27:24 51°19.841 2°57.547 71.7 13.6 69 11.6
2004-11-24 08:27:29 51°19.848 2°57.575 71.6 13.4 70 11.6
2004-11-24 08:27:42 51°19.865 2°57.648 71.9 13.4 69 11.7
2004-11-24 08:27:46 51°19.871 2°57.671 71.5 13.5 69 11.7
2004-11-24 08:27:52 51°19.879 2°57.704 71.2 13.5 69 11.7
2004-11-24 08:27:56 51°19.884 2°57.726 71.5 13.5 69 11.7
2004-11-24 08:28:01 51°19.891 2°57.754 71.6 13.5 68 11.6
2004-11-24 08:28:06 51°19.898 2°57.782 71.1 13.4 69 11.6
2004-11-24 08:28:12 51°19.906 2°57.816 71.8 13.5 70 11.6
2004-11-24 08:28:16 51°19.911 2°57.838 71.8 13.6 68 11.7
2004-11-24 08:28:21 51°19.918 2°57.866 71.3 13.5 70 11.6
2004-11-24 08:28:24 51°19.922 2°57.882 71.4 13.5 69 11.7
2004-11-24 08:28:32 51°19.932 2°57.927 71.5 13.5 70 11.7
2004-11-24 08:28:36 51°19.938 2°57.949 71.7 13.4 67 11.6
2004-11-24 08:28:42 51°19.946 2°57.983 71.3 13.5 70 11.6
2004-11-24 08:28:47 51°19.953 2°58.01 71 13.5 69 11.5
2004-11-24 08:28:49 51°19.956 2°58.022 70.7 13.5 69 11.6
2004-11-24 08:28:57 51°19.967 2°58.066 71 13.5 68 11.6
2004-11-24 08:29:00 51°19.971 2°58.083 70.9 13.4 70 11.6
2004-11-24 08:29:05 51°19.978 2°58.11 71.6 13.4 68 11.5
2004-11-24 08:29:12 51°19.987 2°58.149 71.2 13.4 68 11.5
2004-11-24 08:29:16 51°19.993 2°58.171 71.5 13.4 68 11.5
2004-11-24 08:29:22 51°20.001 2°58.205 71 13.5 69 11.5
2004-11-24 08:29:42 51°20.027 2°58.317 72.2 13.5 71 11.8
2004-11-24 08:30:10 51°20.065 2°58.473 70.8 13.4 68 11.5
2004-11-24 08:30:16 51°20.073 2°58.506 70.9 -999 -999 11.5
2004-11-24 08:30:20 51°20.079 2°58.529 71.1 13.5 69 11.6
2004-11-24 08:30:28 51°20.089 2°58.573 71.5 13.5 68 11.4
2004-11-24 08:30:36 51°20.1 2°58.618 71.2 13.7 70 11.4
2004-11-24 08:30:41 51°20.108 2°58.645 71.1 13.5 67 11.4
2004-11-24 08:30:43 51°20.11 2°58.657 70.8 13.4 70 11.4
2004-11-24 08:30:50 51°20.119 2°58.696 71.7 13.4 70 11.4
2004-11-24 08:30:56 51°20.127 2°58.729 71.2 13.4 70 11.4
2004-11-24 08:31:00 51°20.133 2°58.751 71.8 13.4 69 11.4
2004-11-24 08:31:06 51°20.14 2°58.785 71.6 13.4 70 11.5
2004-11-24 08:31:11 51°20.147 2°58.813 72.1 13.5 69 11.4
2004-11-24 08:31:16 51°20.153 2°58.841 71.8 13.5 70 11.4
2004-11-24 08:31:21 51°20.16 2°58.868 71.5 13.5 68 11.4
2004-11-24 08:31:24 51°20.164 2°58.885 71.5 13.5 68 11.4
2004-11-24 08:31:30 51°20.173 2°58.918 71 13.3 69 11.3
2004-11-24 08:31:42 51°20.189 2°58.984 70.1 13.4 70 11.3
2004-11-24 08:31:44 51°20.192 2°58.996 70.9 13.4 67 11.4
2004-11-24 08:31:55 51°20.207 2°59.056 70.9 13.4 67 11.4
2004-11-24 08:32:00 51°20.214 2°59.084 71.2 13.4 69 11.4
2004-11-24 08:32:04 51°20.219 2°59.106 70.8 13.4 69 11.4
2004-11-24 08:32:08 51°20.224 2°59.128 71.4 13.5 69 11.4
2004-11-24 08:32:14 51°20.232 2°59.162 71.5 13.6 69 11.4
2004-11-24 08:32:20 51°20.24 2°59.195 71.2 13.5 69 11.4
2004-11-24 08:32:22 51°20.243 2°59.207 71.3 13.5 70 11.3
2004-11-24 08:32:34 51°20.258 2°59.274 71.2 13.6 69 11.4
2004-11-24 08:32:40 51°20.266 2°59.307 71 13.6 69 11.3
2004-11-24 08:32:44 51°20.271 2°59.33 71.1 13.6 69 11.3
2004-11-24 08:32:48 51°20.277 2°59.352 70.9 13.6 68 11.3
2004-11-24 08:32:55 51°20.287 2°59.392 70.8 13.7 68 11.2
2004-11-24 08:33:00 51°20.294 2°59.421 70.6 13.8 69 11.3
2004-11-24 08:33:04 51°20.3 2°59.443 70.8 13.8 68 11.3
2004-11-24 08:33:09 51°20.306 2°59.472 70.8 13.8 69 11.3
2004-11-24 08:33:34 51°20.34 2°59.615 71.1 13.8 69 11.2
2004-11-24 08:33:38 51°20.346 2°59.638 70.9 13.9 71 11.2
2004-11-24 08:33:44 51°20.354 2°59.672 71.1 13.9 71 11.2
2004-11-24 08:33:49 51°20.36 2°59.7 71 13.7 70 11.3
2004-11-24 08:33:54 51°20.367 2°59.729 71.2 13.7 70 11.1
2004-11-24 08:33:58 51°20.373 2°59.751 71.1 13.7 70 11.3
2004-11-24 08:34:04 51°20.381 2°59.786 70.7 13.7 70 11.2
2004-11-24 08:34:08 51°20.387 2°59.809 70.9 13.8 69 11.2
2004-11-24 08:34:14 51°20.395 2°59.843 71.1 13.8 69 11.3
2004-11-24 08:34:19 51°20.402 2°59.872 71.1 14 69 11.3
2004-11-24 08:34:22 51°20.407 2°59.889 70.6 13.9 68 11.2
2004-11-24 08:34:29 51°20.416 2°59.929 71 13.7 70 11.2
2004-11-24 08:34:34 51°20.423 2°59.957 71 13.8 68 11.2
2004-11-24 08:34:39 51°20.43 2°59.986 70.6 13.8 69 11.2
2004-11-24 08:34:44 51°20.437 3°0.015 70.5 13.9 69 11.2
2004-11-24 08:34:48 51°20.443 3°0.037 70.7 13.9 69 11.3
2004-11-24 08:34:54 51°20.45 3°0.072 70.9 13.9 69 11.3
2004-11-24 08:34:58 51°20.456 3°0.095 71.8 13.9 69 11.3
2004-11-24 08:35:03 51°20.463 3°0.123 70.9 13.9 69 11.2
2004-11-24 08:35:09 51°20.471 3°0.158 71.6 13.7 69 11.2
2004-11-24 08:35:12 51°20.475 3°0.175 71.7 13.8 68 11.2
2004-11-24 08:35:26 51°20.494 3°0.255 70.5 14 71 11.1
2004-11-24 08:35:32 51°20.503 3°0.29 71.8 14 71 11
2004-11-24 08:35:36 51°20.508 3°0.313 71.2 14 71 11.1
2004-11-24 08:35:41 51°20.515 3°0.341 71 13.8 68 11.1
2004-11-24 08:35:46 51°20.522 3°0.37 71.1 13.8 70 11.1
2004-11-24 08:35:48 51°20.525 3°0.381 71 13.8 69 11
2004-11-24 08:35:56 51°20.535 3°0.428 71.6 13.9 70 11.1
2004-11-24 08:36:01 51°20.542 3°0.456 71.6 13.9 69 11.1
2004-11-24 08:36:06 51°20.549 3°0.485 71.1 13.8 69 11.1
2004-11-24 08:36:12 51°20.557 3°0.519 71.3 13.8 69 11.1
2004-11-24 08:36:16 51°20.563 3°0.542 71.2 13.8 69 11.1
2004-11-24 08:36:18 51°20.566 3°0.554 71.2 13.9 69 11.1
2004-11-24 08:36:26 51°20.577 3°0.6 71.5 13.9 70 11.1
2004-11-24 08:36:30 51°20.582 3°0.623 71.7 13.9 69 11.1
2004-11-24 08:36:36 51°20.59 3°0.657 71.7 13.9 69 11.1
2004-11-24 08:36:49 51°20.608 3°0.732 70.4 13.9 68 11
2004-11-24 08:36:55 51°20.617 3°0.767 71.2 13.9 68 11.1
2004-11-24 08:37:00 51°20.624 3°0.795 70.9 13.9 69 11.1
2004-11-24 08:37:05 51°20.631 3°0.823 71 13.9 69 11.2
2004-11-24 08:37:10 51°20.638 3°0.852 70.4 13.9 69 11.1
2004-11-24 08:37:16 51°20.646 3°0.886 71.3 13.9 67 11
2004-11-24 08:37:20 51°20.651 3°0.91 71.1 13.9 70 11
2004-11-24 08:37:24 51°20.657 3°0.933 71.6 13.9 69 11
2004-11-24 08:37:30 51°20.665 3°0.968 72 14 71 11
2004-11-24 08:37:35 51°20.672 3°0.997 72 14 68 11.1
2004-11-24 08:37:40 51°20.678 3°1.026 71.7 13.9 69 11.1
2004-11-24 08:37:44 51°20.684 3°1.049 71.8 13.8 69 11.1
2004-11-24 08:37:50 51°20.692 3°1.083 72 13.9 69 11.1
2004-11-24 08:37:55 51°20.699 3°1.112 71.6 13.9 69 11.1
2004-11-24 08:38:00 51°20.706 3°1.141 71.3 13.9 68 11.1
2004-11-24 08:38:05 51°20.712 3°1.17 71.5 14 70 11
2004-11-24 08:38:09 51°20.719 3°1.193 71.6 14 70 11
2004-11-24 08:38:14 51°20.725 3°1.222 71.1 14 70 11
2004-11-24 08:38:20 51°20.733 3°1.257 71.3 14 70 11
2004-11-24 08:38:24 51°20.739 3°1.28 71.7 14 69 11.1
2004-11-24 08:38:28 51°20.745 3°1.303 71.3 14 69 11.1
2004-11-24 08:38:34 51°20.753 3°1.337 71.6 14 69 11
2004-11-24 08:38:38 51°20.759 3°1.36 71.1 14 69 11.1
2004-11-24 08:38:44 51°20.767 3°1.395 71.1 14 68 11.2
2004-11-24 08:38:50 51°20.775 3°1.43 70.8 14 68 11.1
2004-11-24 08:38:54 51°20.781 3°1.453 71.4 14 68 11
2004-11-24 08:38:58 51°20.787 3°1.476 70.8 14 68 11
2004-11-24 08:39:02 51°20.792 3°1.499 71.3 14 69 11.1
2004-11-24 08:39:10 51°20.803 3°1.545 71.1 14 69 11.1
2004-11-24 08:39:14 51°20.809 3°1.568 71.3 13.9 69 11.1
2004-11-24 08:39:24 51°20.823 3°1.626 71.6 14 69 11.1
2004-11-24 08:39:32 51°20.834 3°1.673 71.4 14.1 70 11.1
2004-11-24 08:39:36 51°20.84 3°1.696 71.2 14 69 11.1
2004-11-24 08:39:39 51°20.844 3°1.713 71.4 14 68 11
2004-11-24 08:39:46 51°20.854 3°1.754 71.8 14 70 11.1
2004-11-24 08:39:50 51°20.859 3°1.777 71.2 14 70 11.1
2004-11-24 08:39:56 51°20.868 3°1.812 71.5 14 70 11.1
2004-11-24 08:40:01 51°20.875 3°1.841 71.2 14.2 69 11.2
2004-11-24 08:40:22 51°20.905 3°1.963 70.7 14.1 68 11.2
2004-11-24 08:40:28 51°20.913 3°1.998 71 14 69 11.2
2004-11-24 08:40:32 51°20.918 3°2.021 72.1 14 69 11.2
2004-11-24 08:40:38 51°20.927 3°2.056 71.6 14.1 69 11.1
2004-11-24 08:40:44 51°20.935 3°2.091 72.3 14.2 71 11.1
2004-11-24 08:40:48 51°20.94 3°2.115 71.9 14.2 68 11.2
2004-11-24 08:40:52 51°20.946 3°2.138 71.6 14.2 68 11.2
2004-11-24 08:40:58 51°20.954 3°2.173 71.8 14.2 68 11.2
2004-11-24 08:41:04 51°20.963 3°2.208 72.1 14.2 69 11.2
2004-11-24 08:41:08 51°20.968 3°2.232 71.6 14 69 11.3
2004-11-24 08:41:13 51°20.975 3°2.261 72 14.1 71 11.3
2004-11-24 08:41:18 51°20.982 3°2.29 71.4 14 68 11.3
2004-11-24 08:41:22 51°20.988 3°2.313 71.9 14.2 69 11.2
2004-11-24 08:41:28 51°20.996 3°2.349 71.7 14.2 68 11.3
2004-11-24 08:41:33 51°21.003 3°2.378 71.1 14.1 68 11.3
2004-11-24 08:41:44 51°21.019 3°2.442 71.1 14.1 69 11.3
2004-11-24 08:41:48 51°21.024 3°2.466 71.1 14.1 68 11.3
2004-11-24 08:41:56 51°21.036 3°2.512 70.5 14.1 68 11.4
2004-11-24 08:42:00 51°21.041 3°2.535 71.8 14.1 68 11.4
2004-11-24 08:42:23 51°21.075 3°2.669 70.8 14.2 67 11.4
2004-11-24 08:42:28 51°21.082 3°2.699 70.4 14.2 69 11.5
2004-11-24 08:42:32 51°21.088 3°2.722 70.5 14.2 69 11.4
2004-11-24 08:42:36 51°21.093 3°2.745 70.9 14.2 70 11.5
2004-11-24 08:42:40 51°21.099 3°2.769 71.3 14.2 70 11.5
2004-11-24 08:42:48 51°21.11 3°2.816 71.6 14.2 69 11.4
2004-11-24 08:42:52 51°21.116 3°2.839 71.5 14.1 68 11.5
2004-11-24 08:42:58 51°21.125 3°2.874 71.1 14.1 67 11.4
2004-11-24 08:43:02 51°21.13 3°2.898 71.1 14.2 68 11.4
2004-11-24 08:43:08 51°21.139 3°2.932 70.6 14.2 68 11.4
2004-11-24 08:43:11 51°21.143 3°2.95 71.1 14.2 70 11.4
2004-11-24 08:43:17 51°21.152 3°2.985 71 14.2 70 11.4
2004-11-24 08:43:23 51°21.161 3°3.02 70.8 14.2 68 11.6
2004-11-24 08:43:28 51°21.167 3°3.05 71.1 14.2 70 11.5
2004-11-24 08:43:34 51°21.176 3°3.085 71.2 14.2 67 11.3
2004-11-24 08:43:38 51°21.182 3°3.108 70.8 14.2 67 11.4
2004-11-24 08:43:42 51°21.187 3°3.131 71.2 14.2 70 11.5
2004-11-24 08:43:47 51°21.195 3°3.161 71.8 14.4 69 11.5
2004-11-24 08:43:52 51°21.202 3°3.191 71.6 14.2 69 11.4
2004-11-24 08:43:57 51°21.209 3°3.22 71.2 14 69 11.6
2004-11-24 08:44:04 51°21.218 3°3.261 71.5 14.1 70 11.5
2004-11-24 08:44:08 51°21.224 3°3.284 72 14.1 70 11.7
2004-11-24 08:44:12 51°21.229 3°3.308 71.1 14.3 70 11.6
2004-11-24 08:44:18 51°21.238 3°3.343 71.9 14.3 70 11.6
2004-11-24 08:44:23 51°21.244 3°3.373 71.9 14.2 70 11.7
2004-11-24 08:44:28 51°21.252 3°3.402 71.9 14.2 69 11.7
2004-11-24 08:44:32 51°21.257 3°3.426 71.8 14.2 70 11.7
2004-11-24 08:44:38 51°21.266 3°3.461 71.6 14.2 68 11.7
2004-11-24 08:44:43 51°21.273 3°3.49 70.8 14.1 68 11.7
2004-11-24 08:44:46 51°21.277 3°3.507 71.1 14.2 70 11.7
2004-11-24 08:45:04 51°21.303 3°3.613 71.2 14.2 67 11.7
2004-11-24 08:45:08 51°21.309 3°3.637 71.2 14.2 67 11.7
2004-11-24 08:45:12 51°21.314 3°3.66 71.7 14.2 69 11.8
2004-11-24 08:45:16 51°21.32 3°3.684 70.9 14.2 68 11.8
2004-11-24 08:45:20 51°21.326 3°3.707 70.5 14.2 68 11.8
2004-11-24 08:45:28 51°21.337 3°3.754 70.9 14.2 68 11.7
2004-11-24 08:45:32 51°21.344 3°3.777 70.6 14.2 68 11.8
2004-11-24 08:45:38 51°21.352 3°3.812 70.4 14.2 68 11.9
2004-11-24 08:45:42 51°21.358 3°3.835 71.1 14.2 68 11.9
2004-11-24 08:45:48 51°21.366 3°3.87 70.8 14.1 69 11.9
2004-11-24 08:45:51 51°21.371 3°3.887 70.6 14.1 69 11.8
2004-11-24 08:45:58 51°21.381 3°3.928 70.8 14.1 68 11.7
2004-11-24 08:46:02 51°21.387 3°3.951 70.6 14.1 68 11.8
2004-11-24 08:46:08 51°21.395 3°3.986 70.9 14.1 69 11.9
2004-11-24 08:46:12 51°21.401 3°4.01 71.8 14.1 69 11.8
2004-11-24 08:46:18 51°21.41 3°4.044 70.5 14 67 11.8
2004-11-24 08:46:22 51°21.415 3°4.068 71 14 69 11.8
2004-11-24 08:46:28 51°21.425 3°4.102 71.4 14.1 68 11.8
2004-11-24 08:46:33 51°21.431 3°4.131 71 14.1 69 11.9
2004-11-24 08:46:38 51°21.439 3°4.16 70.9 14.1 67 11.8
2004-11-24 08:46:43 51°21.445 3°4.19 71.3 14.2 69 11.9
2004-11-24 08:46:45 51°21.449 3°4.201 71.5 14.1 67 11.9
2004-11-24 08:46:58 51°21.466 3°4.277 72.1 14.1 69 11.8
2004-11-24 08:47:02 51°21.471 3°4.301 72.5 14.2 69 11.9
2004-11-24 08:47:06 51°21.477 3°4.324 71.8 14.1 68 11.9
2004-11-24 08:47:13 51°21.487 3°4.365 71.8 14.1 68 11.8
2004-11-24 08:47:17 51°21.492 3°4.389 71.8 14.2 70 11.9
2004-11-24 08:47:22 51°21.5 3°4.418 71.5 14.2 67 11.9
2004-11-24 08:47:28 51°21.508 3°4.453 70.9 14.1 70 11.9
2004-11-24 08:47:32 51°21.515 3°4.476 70.9 14.1 70 11.8
2004-11-24 08:47:37 51°21.521 3°4.505 71.8 14.1 69 11.9
2004-11-24 08:47:43 51°21.53 3°4.541 71.3 14.1 69 12
2004-11-24 08:47:48 51°21.537 3°4.57 71.6 14.2 69 11.9
2004-11-24 08:47:53 51°21.544 3°4.599 71.2 14.1 69 12
2004-11-24 08:47:58 51°21.551 3°4.628 71.2 14.1 69 11.9
2004-11-24 08:48:04 51°21.559 3°4.663 71.5 14.1 69 12
2004-11-24 08:48:08 51°21.565 3°4.687 71.9 14.1 69 12
2004-11-24 08:48:12 51°21.571 3°4.711 71.9 14.2 69 12.1
2004-11-24 08:48:18 51°21.579 3°4.746 71.8 14.1 69 12.1
2004-11-24 08:48:23 51°21.586 3°4.775 71.8 14.2 69 12.2
2004-11-24 08:48:28 51°21.594 3°4.805 71.8 14.2 69 12.1
2004-11-24 08:48:34 51°21.603 3°4.84 71.2 14.2 69 12.2
2004-11-24 08:48:38 51°21.608 3°4.863 71 14.2 68 12.1
2004-11-24 08:48:42 51°21.614 3°4.887 71.5 14.2 68 12.1
2004-11-24 08:48:48 51°21.623 3°4.922 71.5 14.2 68 12.1
2004-11-24 08:48:53 51°21.63 3°4.951 71.1 14.3 68 12
2004-11-24 08:48:58 51°21.637 3°4.98 70.9 14.3 68 12.1
2004-11-24 08:49:02 51°21.643 3°5.004 71.2 14.2 70 12.1
2004-11-24 08:49:08 51°21.651 3°5.039 71.8 14.2 68 12.1
2004-11-24 08:49:13 51°21.657 3°5.069 72.7 14.2 72 12.2
2004-11-24 08:49:18 51°21.664 3°5.099 73.8 14.2 70 12.2
2004-11-24 08:49:23 51°21.669 3°5.13 74.5 14.3 73 12.2
2004-11-24 08:49:26 51°21.673 3°5.147 75 14.2 71 12.2
2004-11-24 08:49:46 51°21.696 3°5.268 75.9 14.1 73 12.2
2004-11-24 08:49:51 51°21.702 3°5.298 75.3 14.2 72 12.2
2004-11-24 08:49:56 51°21.708 3°5.328 75.4 14.2 75 12.1
2004-11-24 08:50:00 51°21.713 3°5.352 75.1 14.3 72 12
2004-11-24 08:50:06 51°21.72 3°5.389 75.4 14.3 75 12
2004-11-24 08:50:12 51°21.727 3°5.425 75.4 14.3 71 12.1
2004-11-24 08:50:16 51°21.731 3°5.448 74.9 14.3 71 12.2
2004-11-24 08:50:20 51°21.736 3°5.472 75.8 14.2 72 12.1
2004-11-24 08:50:26 51°21.743 3°5.509 75.6 14.2 72 12.1
2004-11-24 08:50:42 51°21.761 3°5.605 76 14.4 73 12.2
2004-11-24 08:50:48 51°21.769 3°5.641 75.6 14.3 72 12.2
2004-11-24 08:51:02 51°21.785 3°5.726 75.7 14.3 72 12.2
2004-11-24 08:51:05 51°21.788 3°5.744 75.3 14.3 73 12.3
2004-11-24 08:51:12 51°21.797 3°5.787 75.4 14.2 74 12.3
2004-11-24 08:51:15 51°21.8 3°5.805 76.2 14.3 73 12.3
2004-11-24 08:51:22 51°21.808 3°5.847 75.8 14.3 73 12.2
2004-11-24 08:51:26 51°21.812 3°5.872 75.8 14.4 73 12.2
2004-11-24 08:52:06 51°21.858 3°6.115 76.5 -999 -999 12.3
2004-11-24 08:52:09 51°21.861 3°6.134 76.4 14.4 73 12.3
2004-11-24 08:52:16 51°21.869 3°6.177 77.2 14.4 75 12.3
2004-11-24 08:52:20 51°21.873 3°6.202 77.2 14.4 76 12.4
2004-11-24 08:52:26 51°21.879 3°6.239 77.7 14.4 76 12.3
2004-11-24 08:52:32 51°21.885 3°6.275 78.2 14.3 74 12.4
2004-11-24 08:52:36 51°21.889 3°6.3 77.6 14.3 74 12.3
2004-11-24 08:52:39 51°21.892 3°6.319 78.2 14.5 75 12.3
2004-11-24 08:52:46 51°21.9 3°6.362 77.5 14.4 75 12.3
2004-11-24 08:52:50 51°21.904 3°6.386 77 14.3 74 12.4
2004-11-24 08:52:56 51°21.912 3°6.422 76.3 14.3 72 12.5
2004-11-24 08:53:01 51°21.92 3°6.451 72.4 14.3 67 12.5
2004-11-24 08:53:06 51°21.929 3°6.48 70 14.3 65 12.5
2004-11-24 08:53:12 51°21.939 3°6.514 67.8 14.2 63 12.5
2004-11-24 08:53:14 51°21.943 3°6.525 66.1 14.3 63 12.6
2004-11-24 08:53:19 51°21.952 3°6.553 64.9 14.4 61 12.7
2004-11-24 08:53:26 51°21.965 3°6.592 64 14.3 61 12.7
2004-11-24 08:53:30 51°21.974 3°6.614 63.8 14.3 59 12.6
2004-11-24 08:53:36 51°21.985 3°6.647 63.4 14.3 62 12.7
2004-11-24 08:53:38 51°21.99 3°6.658 63.1 14.3 59 12.6
2004-11-24 08:53:46 51°22.005 3°6.702 63.1 14.3 59 12.7
2004-11-24 08:53:52 51°22.017 3°6.736 63.1 14.3 61 12.7
2004-11-24 08:53:56 51°22.025 3°6.758 63.2 14.3 61 12.7
2004-11-24 08:53:59 51°22.03 3°6.775 63.8 14.4 61 12.8
2004-11-24 08:54:06 51°22.044 3°6.814 63.8 14.4 61 12.8
2004-11-24 08:54:10 51°22.051 3°6.836 63.9 14.3 61 12.9
2004-11-24 08:54:16 51°22.062 3°6.871 65.8 14.4 64 12.9
2004-11-24 08:54:21 51°22.069 3°6.9 66.7 14.5 67 12.9
2004-11-24 08:54:26 51°22.078 3°6.929 68.5 14.4 65 13
2004-11-24 08:54:28 51°22.08 3°6.941 70 14.3 70 13
2004-11-24 08:54:36 51°22.091 3°6.989 72.6 14.3 70 12.9
2004-11-24 08:54:38 51°22.094 3°7.001 73.3 14.4 70 13.1
2004-11-24 08:54:46 51°22.103 3°7.05 75 14.4 72 13
2004-11-24 08:54:55 51°22.113 3°7.105 76.5 14.5 75 13.1
2004-11-24 08:55:03 51°22.121 3°7.155 77.2 14.5 74 13.1
2004-11-24 08:55:08 51°22.125 3°7.186 78.9 14.4 78 13.2
2004-11-24 08:55:14 51°22.13 3°7.224 80.7 14.4 77 13.2
2004-11-24 08:55:18 51°22.134 3°7.249 81.1 14.5 77 13.2
2004-11-24 08:55:24 51°22.137 3°7.287 82.2 14.5 81 13.2
2004-11-24 08:55:28 51°22.141 3°7.312 82.7 14.5 78 13.1
2004-11-24 08:55:32 51°22.143 3°7.338 83 14.6 82 13.2
2004-11-24 08:55:38 51°22.147 3°7.376 82.9 14.6 79 13.3
2004-11-24 08:55:42 51°22.15 3°7.401 82.7 14.4 81 13.2
2004-11-24 08:55:48 51°22.154 3°7.439 83.5 14.4 81 13.2
2004-11-24 08:55:53 51°22.158 3°7.471 82.7 14.6 80 13.2
2004-11-24 08:56:04 51°22.165 3°7.54 82.1 14.5 81 13.2
2004-11-24 08:56:12 51°22.171 3°7.591 83.1 14.5 82 13.2
2004-11-24 08:56:16 51°22.173 3°7.616 82.8 14.5 81 13.2
2004-11-24 08:56:19 51°22.175 3°7.636 83.4 14.6 81 13.2
2004-11-24 08:56:26 51°22.18 3°7.68 82.7 14.5 79 13.1
2004-11-24 08:56:32 51°22.184 3°7.718 83.5 14.5 80 13.1
2004-11-24 08:56:36 51°22.187 3°7.744 83.3 14.5 80 13
2004-11-24 08:56:40 51°22.19 3°7.769 83 14.6 81 13.1
2004-11-24 08:56:46 51°22.194 3°7.807 82.4 14.5 80 13
2004-11-24 08:56:48 51°22.195 3°7.82 83.1 14.5 79 13.2
2004-11-24 08:56:56 51°22.201 3°7.871 82.8 14.6 80 13.3
2004-11-24 08:57:00 51°22.204 3°7.896 82.6 14.6 79 13.3
2004-11-24 08:57:05 51°22.208 3°7.928 82 14.6 79 13.3
2004-11-24 08:57:11 51°22.212 3°7.966 81.7 14.5 80 13.3
2004-11-24 08:57:16 51°22.217 3°7.997 82.1 14.5 80 13.4
2004-11-24 08:57:20 51°22.219 3°8.023 82.3 14.6 81 13.4
2004-11-24 08:57:26 51°22.224 3°8.061 82.7 14.6 81 13.3
2004-11-24 08:57:32 51°22.228 3°8.099 82.4 14.6 81 13.3
2004-11-24 08:57:36 51°22.232 3°8.124 82 14.6 81 13.3
2004-11-24 08:57:41 51°22.235 3°8.156 82.1 14.5 81 13.4
2004-11-24 08:57:46 51°22.239 3°8.188 82 14.6 79 13.3
2004-11-24 08:57:51 51°22.243 3°8.219 82.6 14.6 78 13.4
2004-11-24 08:57:54 51°22.245 3°8.239 82.5 14.6 80 13.4
2004-11-24 08:58:02 51°22.251 3°8.289 82 14.6 80 13.3
2004-11-24 08:58:04 51°22.252 3°8.302 82 14.6 80 13.4
2004-11-24 08:58:10 51°22.254 3°8.341 84.2 14.5 86 13.5
2004-11-24 08:58:22 51°22.256 3°8.418 91.6 14.5 91 13.5
2004-11-24 08:58:24 51°22.256 3°8.431 92.9 14.5 90 13.5
2004-11-24 08:58:32 51°22.254 3°8.483 94.1 14.5 90 13.5
2004-11-24 08:58:36 51°22.254 3°8.508 95.3 14.5 90 13.6
2004-11-24 08:58:42 51°22.252 3°8.547 96.4 14.5 96 13.5
2004-11-24 08:58:46 51°22.252 3°8.573 96.8 14.6 90 13.5
2004-11-24 08:58:52 51°22.25 3°8.611 95.8 14.5 95 13.5
2004-11-24 08:58:56 51°22.251 3°8.637 95.4 14.5 89 13.6
2004-11-24 08:59:04 51°22.25 3°8.688 94.1 14.4 90 13.5
2004-11-24 08:59:10 51°22.25 3°8.727 93.6 14.6 90 13.6
2004-11-24 08:59:22 51°22.252 3°8.805 91.7 14.6 90 13.7
2004-11-24 08:59:28 51°22.252 3°8.843 91.8 14.5 89 13.5
2004-11-24 08:59:29 51°22.252 3°8.849 92.2 14.5 89 13.7
2004-11-24 08:59:37 51°22.253 3°8.901 92.1 14.6 88 13.6
2004-11-24 08:59:41 51°22.254 3°8.927 91.4 14.7 88 13.5
2004-11-24 08:59:46 51°22.254 3°8.96 91.4 14.6 88 13.6
2004-11-24 08:59:52 51°22.255 3°8.998 90.9 14.5 88 13.6
2004-11-24 08:59:56 51°22.256 3°9.024 91.7 14.5 88 13.7
2004-11-24 09:00:00 51°22.256 3°9.05 92.1 14.7 90 13.6
2004-11-24 09:00:06 51°22.257 3°9.089 92.3 14.8 90 13.7
2004-11-24 09:00:12 51°22.257 3°9.127 91 14.8 90 13.8
2004-11-24 09:00:14 51°22.257 3°9.14 92 14.6 88 13.8
2004-11-24 09:00:25 51°22.26 3°9.212 91 14.7 88 13.8
2004-11-24 09:00:30 51°22.259 3°9.244 90.7 14.6 90 13.9
2004-11-24 09:00:36 51°22.261 3°9.283 91.4 14.6 90 13.9
2004-11-24 09:00:41 51°22.261 3°9.315 91 14.5 89 13.9
2004-11-24 09:00:53 51°22.263 3°9.393 91.9 14.7 87 14
2004-11-24 09:00:59 51°22.263 3°9.432 92 14.7 87 14
2004-11-24 09:01:04 51°22.263 3°9.464 92.1 14.6 89 14.2
2004-11-24 09:01:08 51°22.263 3°9.49 92.6 14.7 91 14.1
2004-11-24 09:01:14 51°22.263 3°9.529 92.5 14.7 91 14.1
2004-11-24 09:01:18 51°22.263 3°9.555 93.2 14.6 91 14.2
2004-11-24 09:01:24 51°22.26 3°9.593 94.8 14.6 91 14.2
2004-11-24 09:01:28 51°22.258 3°9.619 100 14.6 97 14.2
2004-11-24 09:01:34 51°22.255 3°9.658 102.1 14.6 97 14.3
2004-11-24 09:01:38 51°22.253 3°9.684 101.6 14.6 97 14.4
2004-11-24 09:01:44 51°22.249 3°9.722 101.5 14.6 97 14.4
2004-11-24 09:01:49 51°22.248 3°9.755 101.8 14.6 98 14.5
2004-11-24 09:01:54 51°22.246 3°9.787 99.3 14.7 95 14.6
2004-11-24 09:01:59 51°22.246 3°9.82 98.2 14.7 91 14.6
2004-11-24 09:02:04 51°22.245 3°9.853 96.5 14.7 92 14.6
2004-11-24 09:02:09 51°22.245 3°9.885 95.5 14.8 90 14.7
2004-11-24 09:02:12 51°22.243 3°9.905 96.1 14.8 90 14.7
2004-11-24 09:02:19 51°22.239 3°9.95 99.5 14.8 100 14.8
2004-11-24 09:02:24 51°22.235 3°9.982 104.1 14.6 102 14.9
2004-11-24 09:02:28 51°22.23 3°10.006 108.1 14.5 106 14.7
2004-11-24 09:02:34 51°22.223 3°10.044 112.3 14.9 106 15
2004-11-24 09:02:36 51°22.22 3°10.056 112.5 14.6 108 15
2004-11-24 09:02:44 51°22.211 3°10.106 112.5 14.6 108 15.1
2004-11-24 09:02:49 51°22.205 3°10.137 111.6 14.7 105 15.1
2004-11-24 09:02:54 51°22.2 3°10.169 111.7 14.7 105 15.3
2004-11-24 09:02:59 51°22.194 3°10.2 110.3 14.7 106 15.4
2004-11-24 09:03:04 51°22.189 3°10.232 110.7 14.7 106 15.6
2004-11-24 09:03:08 51°22.185 3°10.258 110.6 14.7 106 15.5
2004-11-24 09:03:12 51°22.181 3°10.283 110 14.8 104 15.6
2004-11-24 09:03:22 51°22.172 3°10.348 109.1 15 104 15.7
2004-11-24 09:03:27 51°22.166 3°10.379 109.5 14.8 106 15.7
2004-11-24 09:03:32 51°22.162 3°10.411 109.7 14.9 101 15.8
2004-11-24 09:03:36 51°22.157 3°10.437 109.5 14.9 101 16
2004-11-24 09:04:02 51°22.142 3°10.608 102.3 15 96 17
2004-11-24 09:04:08 51°22.142 3°10.648 100.5 15 92 17.4
2004-11-24 09:04:12 51°22.142 3°10.675 97.8 15 92 17.8
2004-11-24 09:04:16 51°22.143 3°10.702 95 15 92 18.1
2004-11-24 09:04:22 51°22.144 3°10.743 93 15.2 87 18.7
2004-11-24 09:04:26 51°22.146 3°10.769 90.2 15.2 84 18.7
2004-11-24 09:04:32 51°22.15 3°10.809 88.3 15.2 84 18.6
2004-11-24 09:04:36 51°22.154 3°10.835 85.3 15.3 79 18.7
2004-11-24 09:04:54 51°22.171 3°10.954 81.3 15.3 75 18.7
2004-11-24 09:05:00 51°22.176 3°10.994 79.8 15.3 78 18.6
2004-11-24 09:05:04 51°22.181 3°11.019 80.1 15.2 74 18.7
2004-11-24 09:05:09 51°22.186 3°11.052 79.2 15.2 78 18.6
2004-11-24 09:05:14 51°22.192 3°11.085 79.3 15.3 74 18.2
2004-11-24 09:05:19 51°22.197 3°11.118 78.8 15.3 74 18.2
2004-11-24 09:05:24 51°22.205 3°11.15 76.8 15.3 70 18.1
2004-11-24 09:05:28 51°22.209 3°11.176 75.6 15.3 72 17.9
2004-11-24 09:05:34 51°22.218 3°11.214 75.4 15.3 72 17.8
2004-11-24 09:05:38 51°22.223 3°11.241 74.4 15.3 72 17.8
2004-11-24 09:05:44 51°22.231 3°11.279 74.4 15.3 71 17.5
2004-11-24 09:05:49 51°22.238 3°11.312 75 15.6 71 17.4
2004-11-24 09:05:54 51°22.245 3°11.343 73.5 15.5 69 17.4
2004-11-24 09:05:59 51°22.251 3°11.376 74.6 15.4 72 17.3
2004-11-24 09:06:04 51°22.259 3°11.409 75.7 15.4 72 17.2
2004-11-24 09:06:08 51°22.264 3°11.435 74.7 15.4 72 17.2
2004-11-24 09:06:11 51°22.268 3°11.454 75 15.4 72 17.1
2004-11-24 09:06:19 51°22.278 3°11.506 75 15.4 72 17
2004-11-24 09:06:24 51°22.285 3°11.539 74.8 15.4 72 17.1
2004-11-24 09:06:28 51°22.29 3°11.565 75.3 15.4 74 17
2004-11-24 09:06:34 51°22.297 3°11.604 76.4 15.4 74 17.1
2004-11-24 09:06:38 51°22.302 3°11.631 75.4 15.4 73 17.1
2004-11-24 09:06:44 51°22.31 3°11.67 75.3 15.4 73 17.2
2004-11-24 09:06:48 51°22.314 3°11.696 75.8 15.4 73 17
2004-11-24 09:06:52 51°22.32 3°11.722 75.9 15.4 73 16.9
2004-11-24 09:06:58 51°22.327 3°11.762 75.5 15.5 72 16.9
2004-11-24 09:07:08 51°22.34 3°11.826 74.5 15.5 72 16.8
2004-11-24 09:07:16 51°22.35 3°11.879 74.9 15.5 72 16.7
2004-11-24 09:07:18 51°22.353 3°11.892 75.4 15.5 72 16.7
2004-11-24 09:07:24 51°22.36 3°11.932 75.8 15.5 76 16.6
2004-11-24 09:07:38 51°22.377 3°12.024 76.3 15.4 73 16.4
2004-11-24 09:07:44 51°22.384 3°12.063 76.1 15.4 73 16.5
2004-11-24 09:07:48 51°22.389 3°12.089 75.4 15.4 73 16.6
2004-11-24 09:07:54 51°22.397 3°12.129 75.4 15.4 73 16.4
2004-11-24 09:07:58 51°22.402 3°12.155 75.7 15.5 74 16.3
2004-11-24 09:08:04 51°22.409 3°12.194 75.6 15.5 74 16.5
2004-11-24 09:08:09 51°22.416 3°12.227 75.5 15.5 74 16.1
2004-11-24 09:08:14 51°22.422 3°12.26 75.7 15.5 74 15.9
2004-11-24 09:08:18 51°22.426 3°12.286 75.7 15.4 74 15.9
2004-11-24 09:08:24 51°22.434 3°12.325 76.2 15.5 73 15.7
2004-11-24 09:08:28 51°22.439 3°12.352 75.4 15.5 73 15.7
2004-11-24 09:08:34 51°22.446 3°12.391 76.3 15.4 74 15.6
2004-11-24 09:08:38 51°22.451 3°12.418 76.7 15.6 74 15.4
2004-11-24 09:08:44 51°22.458 3°12.457 76.2 15.6 73 15.4
2004-11-24 09:08:48 51°22.463 3°12.483 75.6 15.3 73 15.3
2004-11-24 09:08:54 51°22.47 3°12.523 75.8 15.4 74 15.3
2004-11-24 09:08:59 51°22.476 3°12.556 76.3 15.4 74 15.2
2004-11-24 09:09:04 51°22.482 3°12.589 75.7 15.6 73 15
2004-11-24 09:09:08 51°22.487 3°12.615 75.9 15.4 73 14.9
2004-11-24 09:09:26 51°22.509 3°12.735 75.8 15.6 75 14.7
2004-11-24 09:09:32 51°22.516 3°12.774 76.2 15.5 74 14.6
2004-11-24 09:09:36 51°22.52 3°12.801 76 15.4 76 14.4
2004-11-24 09:09:40 51°22.525 3°12.827 77.2 15.7 74 14.3
2004-11-24 09:09:45 51°22.531 3°12.861 76.4 15.6 74 14.3
2004-11-24 09:09:50 51°22.537 3°12.894 76.4 15.6 74 14.3
2004-11-24 09:10:08 51°22.557 3°13.013 76.8 15.6 74 13.9
2004-11-24 09:10:13 51°22.563 3°13.046 76.9 15.5 74 13.9
2004-11-24 09:10:16 51°22.566 3°13.066 76.5 15.5 74 13.7
2004-11-24 09:10:26 51°22.577 3°13.133 77 15.5 75 13.5
2004-11-24 09:10:32 51°22.584 3°13.173 77.4 15.5 75 13.4
2004-11-24 09:10:36 51°22.589 3°13.199 76.9 15.5 74 13.4
2004-11-24 09:10:42 51°22.596 3°13.239 76.6 15.5 74 13.3
2004-11-24 09:10:58 51°22.614 3°13.345 76.7 15.4 75 13.1
2004-11-24 09:11:04 51°22.621 3°13.385 77.4 15.4 75 12.9
2004-11-24 09:11:08 51°22.625 3°13.412 77.2 15.7 75 12.9
2004-11-24 09:11:14 51°22.632 3°13.452 76.5 15.7 75 12.8
2004-11-24 09:11:18 51°22.636 3°13.479 77.1 15.5 75 12.7
2004-11-24 09:11:24 51°22.643 3°13.518 76.9 15.5 73 12.6
2004-11-24 09:11:28 51°22.647 3°13.545 77.6 15.4 75 12.5
2004-11-24 09:11:32 51°22.652 3°13.571 77.2 15.5 75 12.3
2004-11-24 09:11:39 51°22.66 3°13.618 77.5 15.7 74 12.4
2004-11-24 09:11:44 51°22.665 3°13.652 77 15.5 76 12.3
2004-11-24 09:11:48 51°22.67 3°13.678 77.1 15.5 76 12.1
2004-11-24 09:11:53 51°22.675 3°13.711 77.1 15.5 76 12.1
2004-11-24 09:11:59 51°22.682 3°13.751 77.3 15.5 75 12
2004-11-24 09:12:02 51°22.685 3°13.771 77.6 15.5 75 11.9
2004-11-24 09:12:09 51°22.693 3°13.818 77.9 15.5 76 12
2004-11-24 09:12:14 51°22.698 3°13.851 76.9 15.5 76 11.7
2004-11-24 09:12:19 51°22.704 3°13.884 77.5 15.5 76 11.7
2004-11-24 09:12:24 51°22.71 3°13.917 76.6 15.5 76 11.5
2004-11-24 09:12:26 51°22.712 3°13.931 75.6 15.5 71 11.5
2004-11-24 09:12:50 51°22.743 3°14.088 73.5 15.5 71 11.2
2004-11-24 09:12:54 51°22.748 3°14.114 74.2 15.5 71 11.3
2004-11-24 09:12:58 51°22.753 3°14.14 74.7 15.4 75 11.1
2004-11-24 09:13:04 51°22.761 3°14.18 75.7 15.6 73 11
2004-11-24 09:13:07 51°22.764 3°14.2 75.6 15.7 74 10.9
2004-11-24 09:13:14 51°22.773 3°14.246 75.3 15.6 73 11
2004-11-24 09:13:20 51°22.781 3°14.285 74 15.3 72 11.1
2004-11-24 09:13:28 51°22.791 3°14.338 75.5 15.3 74 10.8
2004-11-24 09:13:34 51°22.799 3°14.378 75.2 15.3 74 10.8
2004-11-24 09:13:38 51°22.804 3°14.404 74.1 15.5 72 10.8
2004-11-24 09:13:44 51°22.812 3°14.443 73.6 15.4 72 10.8
2004-11-24 09:13:48 51°22.817 3°14.469 74 15.4 72 10.7
2004-11-24 09:13:55 51°22.826 3°14.514 74.6 15.4 72 10.7
2004-11-24 09:14:00 51°22.833 3°14.547 74.5 15.5 71 10.8
2004-11-24 09:14:02 51°22.836 3°14.56 72.8 15.7 70 11.1
2004-11-24 09:14:10 51°22.848 3°14.612 71.6 15.6 69 10.9
2004-11-24 09:14:14 51°22.854 3°14.638 71.6 15.5 69 10.5
2004-11-24 09:14:20 51°22.863 3°14.676 71.6 15.5 70 10.5
2004-11-24 09:14:24 51°22.87 3°14.701 70.4 15.3 68 10.3
2004-11-24 09:14:30 51°22.879 3°14.739 70.1 15.4 68 10.3
2004-11-24 09:14:34 51°22.887 3°14.764 69.1 15.6 66 10.3
2004-11-24 09:14:46 51°22.908 3°14.839 66.7 15.4 65 10.2
2004-11-24 09:14:50 51°22.915 3°14.864 66.7 15.3 65 10.2
2004-11-24 09:14:56 51°22.926 3°14.901 66.7 15.5 64 10.1
2004-11-24 09:15:00 51°22.934 3°14.925 64.6 15.3 62 10.1
2004-11-24 09:15:05 51°22.945 3°14.954 62.7 15.2 59 9.9
2004-11-24 09:15:10 51°22.956 3°14.982 59.9 15.2 59 9.9
2004-11-24 09:15:14 51°22.965 3°15.005 58.7 15 55 9.9
2004-11-24 09:15:20 51°22.98 3°15.037 56.4 15.1 55 9.9
2004-11-24 09:15:26 51°22.996 3°15.067 53.8 15.1 55 9.9
2004-11-24 09:15:31 51°23.011 3°15.09 49.4 14.8 43 9.9
2004-11-24 09:15:34 51°23.021 3°15.102 44.7 14.6 39 9.8
2004-11-24 09:15:40 51°23.041 3°15.124 37.7 14.3 31 9.9
2004-11-24 09:15:45 51°23.058 3°15.139 32.4 14.3 31 10
2004-11-24 09:15:50 51°23.076 3°15.153 26.9 14.2 25 10
2004-11-24 09:16:02 51°23.12 3°15.182 21.8 14.3 21 9.8
2004-11-24 09:16:07 51°23.139 3°15.193 20.6 14.4 21 10.1
2004-11-24 09:16:12 51°23.157 3°15.204 19.4 14.3 21 10
2004-11-24 09:16:17 51°23.176 3°15.215 19.2 14.3 20 10